Time;durP1;ratioP1;P1;durP2;ratioP2;P2;SDS_P1;SDS_P2;PMS_P1;PMS_P2;Temp;Humidity;BMP_temperature;BMP_pressure;BME280_temperature;BME280_humidity;BME280_pressure;Samples;Min_cycle;Max_cycle;Signal;HPM_P1;HPM_P2
2023/01/30 00:00:02;;;;;;;15.37;11.60;;;;;;;4.35;75.93;99904.72;5091875;28;20433;-69
2023/01/30 00:02:30;;;;;;;14.67;11.90;;;;;;;4.33;75.62;99896.16;5092021;28;20218;-69
2023/01/30 00:04:56;;;;;;;15.10;12.40;;;;;;;4.44;75.94;99898.59;5091886;28;20815;-69
2023/01/30 00:07:23;;;;;;;17.33;12.57;;;;;;;4.43;75.68;99907.47;5091719;28;20252;-69
2023/01/30 00:09:50;;;;;;;17.07;12.87;;;;;;;4.39;75.27;99900.84;5091781;28;20998;-69
2023/01/30 00:12:16;;;;;;;17.03;12.30;;;;;;;4.49;75.04;99900.75;5091692;28;20952;-69
2023/01/30 00:14:43;;;;;;;14.93;12.07;;;;;;;4.46;75.83;99899.25;5091815;28;20940;-69
2023/01/30 00:17:10;;;;;;;19.80;12.53;;;;;;;4.46;75.67;99890.56;5091975;28;20609;-69
2023/01/30 00:19:38;;;;;;;18.33;11.57;;;;;;;4.59;75.24;99885.75;5091976;28;20494;-69
2023/01/30 00:22:04;;;;;;;16.80;12.27;;;;;;;4.60;74.82;99904.03;5091490;28;20791;-70
2023/01/30 00:24:31;;;;;;;15.63;12.83;;;;;;;4.70;74.91;99896.88;5092256;28;20191;-70
2023/01/30 00:26:58;;;;;;;17.40;12.40;;;;;;;4.80;74.38;99900.28;5092153;28;20484;-69
2023/01/30 00:29:25;;;;;;;16.93;12.67;;;;;;;4.93;73.81;99892.84;5092003;28;20498;-69
2023/01/30 00:31:51;;;;;;;17.60;12.63;;;;;;;5.03;74.06;99890.94;5074319;28;20448;-70
2023/01/30 00:34:18;;;;;;;15.13;12.03;;;;;;;5.01;73.71;99892.09;5071387;28;20441;-69
2023/01/30 00:36:46;;;;;;;13.90;12.40;;;;;;;4.94;73.47;99891.88;5071252;28;20249;-69
2023/01/30 00:39:13;;;;;;;13.93;12.00;;;;;;;4.97;73.24;99890.72;5071892;28;20626;-70
2023/01/30 00:47:07;;;;;;;14.93;12.33;;;;;;;4.67;74.71;99889.31;5075096;28;20249;-69
2023/01/30 00:49:35;;;;;;;16.97;12.97;;;;;;;4.60;74.76;99890.88;5075454;28;20569;-69
2023/01/30 00:52:04;;;;;;;16.30;13.10;;;;;;;4.54;75.60;99886.19;5074712;28;20199;-67
2023/01/30 00:54:31;;;;;;;21.43;13.40;;;;;;;4.54;75.40;99888.00;5075369;28;20555;-67
2023/01/30 00:56:57;;;;;;;17.63;12.90;;;;;;;4.56;75.18;99886.03;5074657;28;20213;-67
2023/01/30 00:59:24;;;;;;;21.00;11.97;;;;;;;4.64;75.36;99884.34;5074849;28;20861;-67
2023/01/30 01:01:51;;;;;;;19.17;11.83;;;;;;;4.62;75.20;99886.28;5074525;28;20442;-67
2023/01/30 01:04:18;;;;;;;15.73;12.97;;;;;;;4.54;75.15;99888.00;5074668;28;20809;-69
2023/01/30 01:06:44;;;;;;;17.07;12.07;;;;;;;4.51;75.82;99877.78;5074770;28;20187;-69
2023/01/30 01:09:12;;;;;;;16.57;12.63;;;;;;;4.50;75.73;99882.19;5074518;28;20196;-69
2023/01/30 01:11:39;;;;;;;17.50;12.63;;;;;;;4.46;75.79;99875.59;5074710;28;20192;-69
2023/01/30 01:14:07;;;;;;;14.27;12.13;;;;;;;4.38;75.81;99872.88;5074458;28;20779;-69
2023/01/30 01:16:34;;;;;;;17.37;13.17;;;;;;;4.33;75.84;99867.22;5075065;28;20203;-69
2023/01/30 01:19:02;;;;;;;15.70;12.80;;;;;;;4.35;75.60;99869.72;5074597;28;20446;-69
2023/01/30 01:21:28;;;;;;;17.73;12.87;;;;;;;4.38;75.56;99866.78;5074738;28;20438;-69
2023/01/30 01:23:57;;;;;;;16.40;11.73;;;;;;;4.41;75.19;99864.69;5074492;28;20482;-67
2023/01/30 01:26:26;;;;;;;16.43;11.60;;;;;;;4.38;75.43;99857.09;5074374;28;20527;-67
2023/01/30 01:28:55;;;;;;;16.77;12.13;;;;;;;4.33;75.21;99856.72;5074426;28;20948;-67
2023/01/30 01:31:22;;;;;;;16.67;13.07;;;;;;;4.13;76.37;99857.78;5087317;28;20445;-67
2023/01/30 01:33:49;;;;;;;18.10;13.27;;;;;;;4.14;76.79;99851.59;5094317;28;20484;-67
2023/01/30 01:36:16;;;;;;;17.50;13.10;;;;;;;4.03;77.01;99854.41;5094680;28;20873;-69
2023/01/30 01:38:43;;;;;;;16.83;12.17;;;;;;;3.97;77.39;99849.69;5094544;28;20494;-69
2023/01/30 01:41:10;;;;;;;14.50;12.30;;;;;;;3.88;77.04;99840.06;5094213;28;20437;-69
2023/01/30 01:44:00;;;;;;;16.53;12.43;;;;;;;3.91;76.91;99844.22;5093964;28;20930;-69
2023/01/30 01:46:30;;;;;;;17.00;12.33;;;;;;;3.86;77.47;99849.91;5094453;28;20433;-68
2023/01/30 01:49:00;;;;;;;16.23;11.37;;;;;;;3.74;77.25;99845.81;5094281;28;20446;-69
2023/01/30 01:51:31;;;;;;;15.97;12.20;;;;;;;3.75;77.22;99850.09;5093912;28;20433;-69
2023/01/30 01:54:03;;;;;;;15.20;11.33;;;;;;;3.83;76.67;99846.72;5093514;28;20453;-69
2023/01/30 01:56:32;;;;;;;15.27;11.47;;;;;;;3.75;76.70;99851.88;5094176;28;20491;-68
2023/01/30 01:59:06;;;;;;;20.73;12.27;;;;;;;3.77;77.22;99845.53;5094098;28;20433;-69
2023/01/30 02:01:32;;;;;;;14.97;11.63;;;;;;;3.83;76.68;99854.59;5094166;28;20475;-69
2023/01/30 02:04:04;;;;;;;15.73;12.10;;;;;;;3.77;76.94;99852.56;5093926;28;20476;-69
2023/01/30 02:06:32;;;;;;;15.33;11.70;;;;;;;3.82;77.25;99848.53;5094041;28;20433;-69
2023/01/30 02:09:05;;;;;;;17.60;12.47;;;;;;;3.77;77.20;99842.06;5093794;28;20494;-69
2023/01/30 02:11:39;;;;;;;15.00;11.67;;;;;;;3.90;76.24;99848.66;5094011;28;20433;-69
2023/01/30 02:14:08;;;;;;;15.63;12.23;;;;;;;3.91;76.37;99849.47;5093849;28;20485;-69
2023/01/30 02:16:36;;;;;;;19.77;12.30;;;;;;;3.94;76.61;99842.13;5093815;28;20486;-69
2023/01/30 02:19:03;;;;;;;15.97;11.63;;;;;;;3.83;76.50;99837.06;5093647;28;20449;-69
2023/01/30 02:22:02;;;;;;;14.13;11.83;;;;;;;3.69;76.67;99841.97;5093802;28;20441;-69
2023/01/30 02:25:19;;;;;;;17.43;12.47;;;;;;;3.59;77.14;99831.47;5068385;28;20507;-68
2023/01/30 02:28:36;;;;;;;18.60;12.03;;;;;;;3.69;77.63;99837.53;5093585;28;20433;-69
2023/01/30 02:31:27;;;;;;;20.33;12.70;;;;;;;3.74;76.75;99835.31;5031101;28;20486;-69
2023/01/30 02:34:11;;;;;;;19.43;12.40;;;;;;;3.66;77.35;99831.72;5030921;28;20435;-70
2023/01/30 02:36:49;;;;;;;18.53;12.53;;;;;;;3.62;77.20;99828.59;5061146;28;20436;-70
2023/01/30 02:39:24;;;;;;;31.00;13.13;;;;;;;3.60;76.63;99832.31;5073087;28;20438;-69
2023/01/30 02:42:00;;;;;;;15.73;12.07;;;;;;;3.65;76.13;99814.31;5072867;28;20422;-69
2023/01/30 02:44:33;;;;;;;18.47;12.97;;;;;;;3.69;76.12;99826.19;5072835;28;20562;-69
2023/01/30 02:47:06;;;;;;;19.10;12.27;;;;;;;3.67;76.23;99823.72;5073110;28;20508;-69
2023/01/30 02:49:38;;;;;;;16.63;12.33;;;;;;;3.66;76.66;99832.56;5072647;28;20806;-69
2023/01/30 02:52:06;;;;;;;20.43;11.67;;;;;;;3.70;75.96;99833.94;5072894;28;20484;-69
2023/01/30 02:54:33;;;;;;;21.77;12.40;;;;;;;3.75;76.54;99823.81;5072769;28;20477;-70
2023/01/30 02:57:00;;;;;;;22.07;13.43;;;;;;;3.69;75.59;99831.44;5072745;28;20912;-69
2023/01/30 02:59:32;;;;;;;16.07;12.27;;;;;;;3.77;75.63;99829.78;5072557;28;20450;-69
2023/01/30 03:02:24;;;;;;;17.27;11.63;;;;;;;3.75;76.00;99831.69;5072753;28;20495;-69
2023/01/30 03:05:23;;;;;;;17.90;12.10;;;;;;;3.73;75.28;99823.16;5068637;28;20442;-69
2023/01/30 03:07:58;;;;;;;17.70;12.03;;;;;;;3.68;75.29;99820.09;5072234;28;20925;-69
2023/01/30 03:10:32;;;;;;;20.57;13.40;;;;;;;3.66;74.84;99823.84;5072759;28;20433;-69
2023/01/30 03:13:05;;;;;;;20.53;12.63;;;;;;;3.55;75.08;99824.06;5072509;28;20499;-69
2023/01/30 03:15:36;;;;;;;18.60;12.17;;;;;;;3.42;75.92;99819.09;5072259;28;20414;-69
2023/01/30 03:18:04;;;;;;;16.90;11.90;;;;;;;3.31;76.19;99815.84;5072098;28;20437;-69
2023/01/30 03:20:36;;;;;;;20.47;12.23;;;;;;;3.49;75.80;99820.19;5072476;28;20430;-69
2023/01/30 03:23:03;;;;;;;17.87;12.20;;;;;;;3.55;75.53;99816.97;5072334;28;20883;-69
2023/01/30 03:25:30;;;;;;;20.20;13.33;;;;;;;3.40;75.66;99794.81;5072466;28;20477;-69
2023/01/30 03:27:57;;;;;;;17.93;12.60;;;;;;;3.52;75.31;99806.75;5071970;28;20430;-69
2023/01/30 03:30:25;;;;;;;20.47;13.00;;;;;;;3.64;75.40;99808.22;5076986;28;20444;-70
2023/01/30 03:32:52;;;;;;;22.03;12.60;;;;;;;3.63;75.14;99811.03;5092294;28;21037;-69
2023/01/30 03:35:20;;;;;;;21.97;13.23;;;;;;;3.61;74.73;99803.28;5092205;28;21010;-69
2023/01/30 03:37:47;;;;;;;15.67;11.70;;;;;;;3.63;75.26;99801.34;5091982;28;20495;-69
2023/01/30 03:40:15;;;;;;;17.07;12.33;;;;;;;3.57;74.90;99808.97;5092555;28;20437;-69
2023/01/30 03:42:43;;;;;;;15.47;11.40;;;;;;;3.44;75.22;99796.16;5092184;28;20502;-70
2023/01/30 03:45:11;;;;;;;17.67;12.67;;;;;;;3.38;75.67;99795.91;5092357;28;20437;-69
2023/01/30 03:47:37;;;;;;;21.30;13.70;;;;;;;3.53;75.38;99804.97;5092200;28;20503;-70
2023/01/30 03:50:05;;;;;;;23.60;13.23;;;;;;;3.54;75.40;99804.00;5092204;28;20445;-69
2023/01/30 03:52:34;;;;;;;21.93;13.73;;;;;;;3.52;75.31;99803.31;5092195;28;20437;-70
2023/01/30 03:55:01;;;;;;;19.63;12.70;;;;;;;3.40;75.78;99805.31;5092237;28;20548;-70
2023/01/30 03:57:28;;;;;;;18.07;12.37;;;;;;;3.45;75.74;99808.31;5092239;28;20441;-70
2023/01/30 03:59:55;;;;;;;26.03;17.70;;;;;;;3.51;75.90;99807.75;5091859;28;20494;-68
2023/01/30 04:02:22;;;;;;;18.07;13.23;;;;;;;3.45;75.58;99813.56;5092111;28;20919;-68
2023/01/30 04:04:49;;;;;;;23.10;14.20;;;;;;;3.54;74.82;99812.72;5091991;28;20584;-69
2023/01/30 04:07:16;;;;;;;21.53;13.63;;;;;;;3.63;75.63;99811.03;5091815;28;20963;-69
2023/01/30 04:09:44;;;;;;;21.83;13.50;;;;;;;3.65;75.07;99799.41;5091977;28;20453;-69
2023/01/30 04:12:11;;;;;;;21.90;13.60;;;;;;;3.72;75.14;99803.09;5091277;28;20502;-69
2023/01/30 04:14:37;;;;;;;19.83;14.03;;;;;;;3.58;74.30;99802.72;5092019;28;20437;-69
2023/01/30 04:17:04;;;;;;;22.73;12.73;;;;;;;3.47;75.02;99803.75;5095380;28;20498;-69
2023/01/30 04:19:31;;;;;;;18.63;12.27;;;;;;;3.51;74.66;99807.75;5095969;28;20440;-69
2023/01/30 04:21:57;;;;;;;17.97;12.00;;;;;;;3.45;75.08;99803.06;5095665;28;20502;-70
2023/01/30 04:24:24;;;;;;;18.90;13.23;;;;;;;3.45;74.07;99803.06;5095808;28;20918;-69
2023/01/30 04:26:52;;;;;;;19.37;13.10;;;;;;;3.37;74.81;99789.84;5095940;28;20537;-70
2023/01/30 04:29:19;;;;;;;18.37;11.83;;;;;;;3.45;74.90;99800.44;5094508;28;20948;-71
2023/01/30 04:31:46;;;;;;;15.73;11.80;;;;;;;3.52;74.92;99804.13;5079414;28;20442;-71
2023/01/30 04:34:13;;;;;;;16.23;12.20;;;;;;;3.54;74.55;99807.47;5075383;28;20438;-70
2023/01/30 04:36:40;;;;;;;16.47;11.27;;;;;;;3.43;74.40;99799.75;5075119;28;20495;-71
2023/01/30 04:39:07;;;;;;;16.13;12.53;;;;;;;3.53;74.38;99799.72;5075316;28;20937;-69
2023/01/30 04:41:34;;;;;;;14.30;11.60;;;;;;;3.53;74.51;99802.34;5074931;28;20953;-70
2023/01/30 04:44:02;;;;;;;20.97;13.57;;;;;;;3.41;74.77;99806.97;5075136;28;20478;-71
2023/01/30 04:46:28;;;;;;;20.47;12.40;;;;;;;3.39;73.92;99803.63;5075070;28;20483;-70
2023/01/30 04:48:55;;;;;;;16.90;12.63;;;;;;;3.30;74.52;99794.00;5075085;28;20437;-70
2023/01/30 04:51:22;;;;;;;18.60;12.03;;;;;;;3.43;74.74;99802.38;5075079;28;20441;-69
2023/01/30 04:53:48;;;;;;;17.33;11.60;;;;;;;3.46;74.03;99801.25;5075007;28;20438;-69
2023/01/30 04:56:16;;;;;;;19.70;11.93;;;;;;;3.47;74.76;99800.31;5075265;28;20494;-70
2023/01/30 04:58:43;;;;;;;16.93;12.03;;;;;;;3.34;75.03;99805.88;5074742;28;20454;-70
2023/01/30 05:01:16;;;;;;;18.57;10.87;;;;;;;3.19;74.89;99796.78;5075069;28;20434;-70
2023/01/30 05:03:43;;;;;;;36.23;14.00;;;;;;;3.24;75.24;99799.81;5074739;28;20554;-69
2023/01/30 05:06:09;;;;;;;25.80;13.90;;;;;;;3.32;75.01;99793.84;5074913;28;20444;-70
2023/01/30 05:08:36;;;;;;;23.03;13.37;;;;;;;3.38;75.34;99796.72;5074816;28;20438;-70
2023/01/30 05:11:03;;;;;;;17.17;11.73;;;;;;;3.43;74.26;99798.94;5074447;28;20430;-70
2023/01/30 05:13:29;;;;;;;15.47;12.47;;;;;;;3.30;74.37;99799.25;5074768;28;20446;-69
2023/01/30 05:15:56;;;;;;;21.50;12.63;;;;;;;3.38;74.09;99796.72;5074299;28;20491;-70
2023/01/30 05:18:24;;;;;;;18.60;12.07;;;;;;;3.27;74.37;99799.53;5074602;28;20473;-70
2023/01/30 05:20:51;;;;;;;18.30;11.80;;;;;;;3.28;74.42;99808.22;5074525;28;20495;-69
2023/01/30 05:23:18;;;;;;;18.67;12.60;;;;;;;3.29;74.69;99808.09;5074137;28;20491;-70
2023/01/30 05:25:44;;;;;;;20.43;12.93;;;;;;;3.23;74.64;99802.59;5074338;28;20492;-70
2023/01/30 05:28:11;;;;;;;14.47;11.63;;;;;;;3.21;75.03;99804.50;5073207;28;20953;-69
2023/01/30 05:30:38;;;;;;;22.30;13.37;;;;;;;3.13;75.04;99802.59;5081091;28;20429;-69
2023/01/30 05:33:04;;;;;;;18.53;13.33;;;;;;;3.22;74.85;99790.41;5094243;28;20445;-70
2023/01/30 05:35:32;;;;;;;19.20;13.13;;;;;;;3.15;74.46;99795.41;5094650;28;20864;-70
2023/01/30 05:38:01;;;;;;;20.03;13.47;;;;;;;3.18;74.47;99802.19;5094577;28;20998;-70
2023/01/30 05:40:27;;;;;;;21.37;12.90;;;;;;;3.26;75.14;99808.38;5094103;28;20445;-70
2023/01/30 05:42:54;;;;;;;17.87;13.07;;;;;;;3.20;74.39;99803.72;5094450;28;20527;-69
2023/01/30 05:45:21;;;;;;;21.17;13.43;;;;;;;3.05;75.22;99805.09;5093859;28;20473;-69
2023/01/30 05:47:51;;;;;;;21.87;13.73;;;;;;;3.13;75.60;99802.59;5093821;28;20495;-69
2023/01/30 05:50:18;;;;;;;22.60;12.93;;;;;;;3.19;74.75;99796.78;5093800;28;20528;-70
2023/01/30 05:52:46;;;;;;;36.37;13.03;;;;;;;3.14;75.62;99804.25;5094035;28;20441;-70
2023/01/30 05:55:13;;;;;;;21.97;13.00;;;;;;;3.17;75.30;99795.28;5093632;28;20437;-69
2023/01/30 05:57:39;;;;;;;20.03;14.03;;;;;;;3.15;75.77;99799.84;5093995;28;20502;-70
2023/01/30 06:00:09;;;;;;;28.17;15.30;;;;;;;3.07;75.02;99803.16;5093712;28;20494;-70
2023/01/30 06:02:36;;;;;;;19.67;13.40;;;;;;;3.08;76.11;99798.75;5093549;28;20433;-70
2023/01/30 06:05:03;;;;;;;26.43;14.90;;;;;;;3.06;76.12;99798.88;5093329;28;20932;-69
2023/01/30 06:07:29;;;;;;;19.17;13.10;;;;;;;3.11;74.97;99809.78;5093793;28;20506;-70
2023/01/30 06:09:57;;;;;;;18.83;11.90;;;;;;;3.12;75.21;99808.84;5093521;28;20433;-70
2023/01/30 06:12:24;;;;;;;40.27;15.60;;;;;;;3.18;75.51;99816.13;5093539;28;21005;-69
2023/01/30 06:14:51;;;;;;;29.07;14.50;;;;;;;3.11;75.36;99803.72;5093256;28;20900;-70
2023/01/30 06:17:17;;;;;;;43.83;12.53;;;;;;;3.14;75.01;99817.38;5093443;28;20778;-69
2023/01/30 06:19:44;;;;;;;25.80;12.00;;;;;;;3.13;75.32;99823.59;5093652;28;20457;-70
2023/01/30 06:22:11;;;;;;;19.47;13.77;;;;;;;3.10;75.31;99818.63;5093468;28;20452;-69
2023/01/30 06:24:37;;;;;;;36.67;14.53;;;;;;;3.14;74.12;99814.75;5093184;28;20533;-70
2023/01/30 06:27:05;;;;;;;20.23;12.53;;;;;;;3.14;74.23;99820.00;5093653;28;20545;-70
2023/01/30 06:29:32;;;;;;;51.50;14.97;;;;;;;3.25;74.05;99819.00;5093308;28;20490;-70
2023/01/30 06:31:59;;;;;;;23.60;11.80;;;;;;;3.28;73.95;99816.09;5074869;28;20442;-69
2023/01/30 06:34:25;;;;;;;20.50;12.53;;;;;;;3.26;74.30;99818.88;5073332;28;20484;-70
2023/01/30 06:36:52;;;;;;;24.30;12.33;;;;;;;3.15;75.30;99815.59;5072541;28;20511;-69
2023/01/30 06:39:19;;;;;;;20.53;13.27;;;;;;;3.19;74.44;99820.41;5072388;28;20445;-69
2023/01/30 06:41:46;;;;;;;47.63;14.20;;;;;;;3.18;75.26;99820.56;5072267;28;20448;-70
2023/01/30 06:44:14;;;;;;;29.00;12.97;;;;;;;3.20;75.08;99822.06;5072346;28;21020;-69
2023/01/30 06:46:43;;;;;;;82.83;18.60;;;;;;;3.25;74.76;99822.47;5072675;28;20437;-69
2023/01/30 06:49:10;;;;;;;24.03;13.20;;;;;;;3.32;74.22;99813.06;5072527;28;20484;-69
2023/01/30 06:51:36;;;;;;;20.57;12.87;;;;;;;3.21;74.54;99821.09;5072416;28;20442;-69
2023/01/30 06:54:06;;;;;;;188.80;20.37;;;;;;;3.30;74.08;99828.13;5072348;28;20508;-70
2023/01/30 06:56:33;;;;;;;20.80;13.43;;;;;;;3.28;75.01;99827.44;5072227;28;20979;-70
2023/01/30 06:59:00;;;;;;;29.13;15.77;;;;;;;3.27;74.18;99820.53;5072476;28;20442;-70
2023/01/30 07:01:28;;;;;;;20.73;13.70;;;;;;;3.20;75.12;99823.88;5072074;28;21026;-69
2023/01/30 07:03:54;;;;;;;20.83;14.70;;;;;;;3.18;74.17;99821.38;5072255;28;20546;-69
2023/01/30 07:06:21;;;;;;;26.90;13.83;;;;;;;3.21;74.70;99821.09;5072113;28;20438;-69
2023/01/30 07:08:48;;;;;;;23.47;14.40;;;;;;;3.35;74.22;99827.72;5072467;28;20865;-69
2023/01/30 07:11:14;;;;;;;24.90;15.50;;;;;;;3.34;73.87;99826.03;5072648;28;20437;-69
2023/01/30 07:13:41;;;;;;;22.37;14.27;;;;;;;3.29;74.20;99823.84;5072322;28;20445;-69
2023/01/30 07:16:08;;;;;;;19.27;11.67;;;;;;;3.30;74.57;99824.66;5072316;28;20499;-69
2023/01/30 07:18:36;;;;;;;20.87;12.90;;;;;;;3.39;73.67;99829.88;5072219;28;20446;-69
2023/01/30 07:21:03;;;;;;;19.60;10.77;;;;;;;3.36;73.32;99824.94;5071845;28;20438;-69
2023/01/30 07:23:29;;;;;;;18.43;12.07;;;;;;;3.46;73.67;99836.22;5072374;28;20437;-70
2023/01/30 07:25:56;;;;;;;17.63;11.83;;;;;;;3.43;72.90;99831.25;5072054;28;20500;-70
2023/01/30 07:28:23;;;;;;;16.83;11.83;;;;;;;3.39;73.22;99832.50;5071914;28;20434;-69
2023/01/30 07:30:51;;;;;;;50.67;20.70;;;;;;;3.46;73.05;99836.22;5080020;28;20960;-70
2023/01/30 07:33:18;;;;;;;37.23;18.00;;;;;;;3.49;73.67;99829.88;5092287;28;20444;-69
2023/01/30 07:35:46;;;;;;;29.43;18.00;;;;;;;3.50;73.16;99832.34;5092231;28;20467;-70
2023/01/30 07:38:13;;;;;;;99.23;15.10;;;;;;;3.57;72.92;99833.44;5092097;28;20874;-70
2023/01/30 07:40:40;;;;;;;16.97;12.40;;;;;;;3.60;72.36;99829.69;5092060;28;20544;-70
2023/01/30 07:43:09;;;;;;;29.43;14.23;;;;;;;3.69;73.24;99834.91;5092125;28;20499;-70
2023/01/30 07:45:39;;;;;;;28.20;15.03;;;;;;;3.71;72.53;99826.88;5092015;28;20545;-69
2023/01/30 07:48:06;;;;;;;29.63;15.73;;;;;;;3.57;72.61;99822.94;5091841;28;20740;-69
2023/01/30 07:50:33;;;;;;;27.87;17.37;;;;;;;3.73;72.55;99833.66;5091433;28;20494;-69
2023/01/30 07:53:03;;;;;;;32.30;17.07;;;;;;;3.79;72.43;99825.19;5092116;28;20433;-69
2023/01/30 07:55:29;;;;;;;29.33;16.70;;;;;;;3.84;72.52;99816.88;5092202;28;20433;-70
2023/01/30 07:57:57;;;;;;;25.33;13.67;;;;;;;3.77;72.16;99827.16;5091667;28;20947;-70
2023/01/30 08:00:24;;;;;;;15.80;12.47;;;;;;;3.55;72.78;99818.81;5092085;28;20497;-69
2023/01/30 08:02:51;;;;;;;77.87;16.37;;;;;;;3.53;73.02;99811.06;5092024;28;20799;-68
2023/01/30 08:05:17;;;;;;;22.90;13.87;;;;;;;3.68;72.73;99814.84;5091864;28;20526;-68
2023/01/30 08:07:46;;;;;;;26.13;16.70;;;;;;;3.72;72.79;99823.28;5091582;28;20437;-68
2023/01/30 08:10:14;;;;;;;22.93;15.03;;;;;;;3.66;72.55;99806.31;5091696;28;20437;-68
2023/01/30 08:12:41;;;;;;;28.40;15.50;;;;;;;3.79;72.28;99817.31;5091903;28;20429;-68
2023/01/30 08:15:09;;;;;;;30.90;16.47;;;;;;;3.82;72.79;99822.28;5091610;28;20444;-69
2023/01/30 08:17:36;;;;;;;25.83;16.97;;;;;;;3.77;71.99;99819.25;5091529;28;21013;-69
2023/01/30 08:20:04;;;;;;;23.10;13.33;;;;;;;3.57;72.48;99820.31;5091461;28;21017;-70
2023/01/30 08:22:31;;;;;;;18.77;12.97;;;;;;;3.52;72.87;99809.38;5091288;28;20532;-69
2023/01/30 08:24:57;;;;;;;28.80;13.23;;;;;;;3.70;72.43;99817.34;5091578;28;20534;-70
2023/01/30 08:27:26;;;;;;;35.93;16.57;;;;;;;3.72;73.08;99805.72;5091673;28;20461;-69
2023/01/30 08:29:52;;;;;;;30.70;15.63;;;;;;;3.73;72.31;99823.16;5091104;28;20429;-70
2023/01/30 08:32:19;;;;;;;31.47;15.33;;;;;;;3.66;73.09;99806.31;5071222;28;20430;-70
2023/01/30 08:34:46;;;;;;;18.43;12.33;;;;;;;3.54;72.51;99811.88;5071552;28;20449;-70
2023/01/30 08:37:12;;;;;;;89.27;17.03;;;;;;;3.47;73.64;99816.88;5070996;28;20976;-70
2023/01/30 08:39:39;;;;;;;22.00;12.27;;;;;;;3.53;72.94;99811.06;5071412;28;20880;-69
2023/01/30 08:42:06;;;;;;;17.03;11.53;;;;;;;3.67;73.04;99805.31;5071004;28;20944;-70
2023/01/30 08:44:34;;;;;;;13.10;10.40;;;;;;;3.56;72.63;99808.13;5071394;28;20973;-69
2023/01/30 08:47:01;;;;;;;26.13;11.10;;;;;;;3.57;72.46;99807.19;5070943;28;20487;-69
2023/01/30 08:49:27;;;;;;;21.53;12.13;;;;;;;3.60;73.13;99801.63;5071038;28;20951;-69
2023/01/30 08:51:54;;;;;;;16.23;11.37;;;;;;;3.57;73.97;99812.44;5071240;28;20192;-70
2023/01/30 08:54:21;;;;;;;28.13;13.43;;;;;;;3.65;73.58;99804.66;5071076;28;21006;-70
2023/01/30 08:56:47;;;;;;;40.00;14.53;;;;;;;3.63;73.31;99811.03;5070802;28;20437;-70
2023/01/30 08:59:14;;;;;;;25.13;12.87;;;;;;;3.72;73.55;99803.09;5071467;28;20442;-69
2023/01/30 09:01:42;;;;;;;19.93;12.17;;;;;;;3.66;73.60;99803.69;5071615;28;20446;-69
2023/01/30 09:04:09;;;;;;;28.23;17.07;;;;;;;3.75;73.66;99800.19;5074801;28;20491;-70
2023/01/30 09:06:36;;;;;;;20.83;13.03;;;;;;;3.73;73.29;99796.88;5074545;28;20442;-70
2023/01/30 09:09:02;;;;;;;84.90;20.63;;;;;;;3.89;72.66;99797.06;5074924;28;20442;-69
2023/01/30 09:11:29;;;;;;;34.27;14.13;;;;;;;3.89;72.49;99798.88;5075016;28;20442;-70
2023/01/30 09:13:56;;;;;;;15.50;11.57;;;;;;;3.83;72.44;99797.66;5074793;28;20438;-69
2023/01/30 09:16:22;;;;;;;24.90;13.20;;;;;;;3.89;72.19;99789.16;5074321;28;21018;-70
2023/01/30 09:18:51;;;;;;;25.13;14.73;;;;;;;3.99;73.02;99778.59;5074801;28;20449;-69
2023/01/30 09:21:17;;;;;;;22.43;12.83;;;;;;;4.09;72.05;99782.84;5074662;28;20492;-69
2023/01/30 09:23:44;;;;;;;24.67;13.83;;;;;;;4.16;71.57;99778.66;5074464;28;20976;-70
2023/01/30 09:26:12;;;;;;;29.40;13.00;;;;;;;4.00;70.68;99783.72;5074383;28;20566;-70
2023/01/30 09:28:38;;;;;;;21.07;14.30;;;;;;;4.01;71.82;99779.31;5074413;28;20494;-69
2023/01/30 09:31:05;;;;;;;22.73;12.67;;;;;;;4.07;71.62;99768.19;5085119;28;20475;-70
2023/01/30 09:33:32;;;;;;;25.70;14.03;;;;;;;4.10;71.42;99770.53;5094662;28;20441;-70
2023/01/30 09:36:00;;;;;;;24.17;11.97;;;;;;;4.00;72.04;99765.31;5094633;28;20445;-69
2023/01/30 09:38:27;;;;;;;19.20;12.40;;;;;;;4.00;72.64;99760.06;5094657;28;20429;-69
2023/01/30 09:41:15;;;;;;;23.67;13.47;;;;;;;4.05;72.23;99749.94;5094107;28;20433;-70
2023/01/30 09:43:57;;;;;;;24.63;13.43;;;;;;;4.16;72.02;99747.09;5094471;28;20425;-70
2023/01/30 09:46:34;;;;;;;27.00;10.63;;;;;;;4.18;72.40;99739.91;5094520;28;20468;-70
2023/01/30 09:49:13;;;;;;;27.37;12.53;;;;;;;4.18;72.03;99732.03;5094040;28;20650;-69
2023/01/30 09:51:52;;;;;;;14.30;10.13;;;;;;;4.26;71.63;99747.88;5094340;28;20433;-70
2023/01/30 09:54:23;;;;;;;21.60;10.57;;;;;;;4.22;71.71;99738.63;5094296;28;20474;-69
2023/01/30 09:57:11;;;;;;;16.90;10.93;;;;;;;4.34;70.99;99733.97;5093822;28;20445;-69
2023/01/30 09:59:48;;;;;;;20.77;12.13;;;;;;;4.31;71.44;99732.47;5085333;28;20187;-70
2023/01/30 10:02:37;;;;;;;16.93;10.83;;;;;;;4.34;71.14;99721.63;5093752;28;20429;-70
2023/01/30 10:05:05;;;;;;;24.37;12.00;;;;;;;4.22;71.27;99714.97;5093894;28;20468;-69
2023/01/30 10:07:45;;;;;;;17.17;11.30;;;;;;;4.05;71.85;99713.16;5094093;28;20803;-69
2023/01/30 10:10:21;;;;;;;28.70;15.73;;;;;;;4.35;71.05;99702.28;5094105;28;20494;-69
2023/01/30 10:12:58;;;;;;;16.73;11.57;;;;;;;4.42;70.51;99699.84;5093224;28;20441;-70
2023/01/30 10:15:34;;;;;;;17.37;11.40;;;;;;;4.36;69.72;99696.03;5093578;28;20186;-70
2023/01/30 10:18:30;;;;;;;26.23;11.13;;;;;;;4.41;69.10;99693.75;5093347;28;20179;-70
2023/01/30 10:21:09;;;;;;;13.60;9.30;;;;;;;4.30;69.14;99685.28;5080065;28;20445;-69
2023/01/30 10:23:56;;;;;;;12.80;10.53;;;;;;;4.17;69.63;99680.41;5093736;28;20256;-69
2023/01/30 10:26:26;;;;;;;14.33;9.67;;;;;;;4.23;70.11;99666.66;5093348;28;20987;-69
2023/01/30 10:28:59;;;;;;;20.90;11.40;;;;;;;4.36;69.85;99664.47;5093415;28;20858;-70
2023/01/30 10:31:30;;;;;;;24.77;12.40;;;;;;;4.37;69.93;99671.38;5079936;28;20851;-69
2023/01/30 10:34:00;;;;;;;15.37;10.67;;;;;;;4.36;70.16;99659.22;5072889;28;20756;-69
2023/01/30 10:36:35;;;;;;;26.47;12.30;;;;;;;4.36;70.22;99647.84;5073116;28;20508;-69
2023/01/30 10:39:10;;;;;;;14.47;11.27;;;;;;;4.39;69.23;99648.41;5072865;28;20426;-70
2023/01/30 10:41:42;;;;;;;45.30;18.43;;;;;;;4.45;70.23;99639.88;5073211;28;20420;-69
2023/01/30 10:44:11;;;;;;;24.90;15.13;;;;;;;4.50;70.60;99637.59;5072678;28;20426;-69
2023/01/30 10:46:56;;;;;;;15.10;11.67;;;;;;;4.51;69.61;99626.13;5073191;28;20238;-69
2023/01/30 10:49:36;;;;;;;14.73;10.70;;;;;;;4.48;69.83;99622.97;5072640;28;20532;-69
2023/01/30 10:52:19;;;;;;;21.93;12.93;;;;;;;4.53;69.96;99613.63;5072577;28;20920;-69
2023/01/30 10:54:56;;;;;;;29.83;11.73;;;;;;;4.56;69.14;99608.06;5072743;28;20438;-69
2023/01/30 10:57:34;;;;;;;22.23;12.13;;;;;;;4.49;69.02;99596.50;5072712;28;20245;-69
2023/01/30 11:00:03;;;;;;;25.67;11.20;;;;;;;4.70;68.99;99599.59;5072702;28;20225;-70
2023/01/30 11:02:40;;;;;;;19.67;10.90;;;;;;;4.74;69.04;99595.69;5072240;28;20430;-69
2023/01/30 11:05:14;;;;;;;15.20;10.40;;;;;;;4.80;67.71;99595.06;5072247;28;20265;-69
2023/01/30 11:07:45;;;;;;;27.63;11.53;;;;;;;4.83;67.99;99578.94;5072474;28;20433;-69
2023/01/30 11:10:19;;;;;;;24.93;13.17;;;;;;;4.66;67.94;99577.22;5072816;28;20427;-70
2023/01/30 11:12:46;;;;;;;27.83;14.47;;;;;;;4.82;68.50;99571.22;5072042;28;20713;-70
2023/01/30 11:15:13;;;;;;;29.77;15.27;;;;;;;4.55;68.80;99551.19;5072185;28;20533;-69
2023/01/30 11:17:41;;;;;;;24.40;13.20;;;;;;;4.84;68.12;99553.47;5072460;28;20192;-69
2023/01/30 11:20:15;;;;;;;20.90;12.17;;;;;;;5.00;67.76;99558.78;5072349;28;20230;-69
2023/01/30 11:22:51;;;;;;;21.90;11.80;;;;;;;4.99;67.40;99547.44;5072068;28;20494;-69
2023/01/30 11:25:21;;;;;;;25.93;10.40;;;;;;;4.98;67.53;99550.22;5071123;28;20718;-69
2023/01/30 11:27:54;;;;;;;15.23;10.70;;;;;;;5.00;67.08;99543.84;5072249;28;20290;-69
2023/01/30 11:30:26;;;;;;;24.80;12.43;;;;;;;5.07;67.72;99539.56;5076721;28;20278;-69
2023/01/30 11:33:06;;;;;;;20.23;11.60;;;;;;;4.90;67.54;99537.84;5092123;28;20248;-69
2023/01/30 11:35:39;;;;;;;30.03;11.17;;;;;;;5.01;67.36;99527.06;5092435;28;20432;-69
2023/01/30 11:38:21;;;;;;;19.17;10.27;;;;;;;4.97;67.04;99509.94;5091937;28;20657;-69
2023/01/30 11:40:50;;;;;;;31.47;15.73;;;;;;;4.87;67.08;99526.84;5091905;28;20245;-70